createdAt,value
2019-05-09T00:01:27.947Z,11.15
2019-05-09T00:03:59.003Z,12.50
2019-05-09T00:06:30.231Z,10.75
2019-05-09T00:09:03.569Z,11.93
2019-05-09T00:11:33.733Z,11.63
2019-05-09T00:14:04.883Z,11.10
2019-05-09T00:16:36.138Z,10.72
2019-05-09T00:19:07.157Z,11.08
2019-05-09T00:21:39.365Z,11.68
2019-05-09T00:24:10.295Z,12.53
2019-05-09T00:26:41.270Z,11.57
2019-05-09T00:29:14.035Z,12.43
2019-05-09T00:31:45.207Z,10.93
2019-05-09T00:34:17.409Z,9.63
2019-05-09T00:36:48.369Z,9.55
2019-05-09T00:39:38.659Z,10.32
2019-05-09T00:42:09.534Z,10.23
2019-05-09T00:44:43.136Z,9.43
2019-05-09T00:47:15.472Z,9.20
2019-05-09T00:49:46.382Z,9.00
2019-05-09T00:52:17.128Z,9.75
2019-05-09T00:54:48.981Z,10.40
2019-05-09T00:57:22.993Z,10.50
2019-05-09T01:02:24.188Z,9.03
2019-05-09T01:04:55.158Z,9.08
2019-05-09T01:07:26.016Z,9.33
2019-05-09T01:09:57.113Z,9.40
2019-05-09T01:12:27.898Z,9.00
2019-05-09T01:14:58.848Z,9.53
2019-05-09T01:17:30.353Z,9.60
2019-05-09T01:20:03.349Z,9.80
2019-05-09T01:22:33.462Z,9.48
2019-05-09T01:25:04.377Z,8.35
2019-05-09T01:27:35.530Z,9.43
2019-05-09T01:30:07.309Z,8.78
2019-05-09T01:32:40.038Z,9.03
2019-05-09T01:35:13.034Z,8.63
2019-05-09T01:37:43.666Z,10.68
2019-05-09T01:40:14.758Z,9.20
2019-05-09T01:42:45.958Z,9.50
2019-05-09T01:45:17.077Z,9.28
2019-05-09T01:47:48.663Z,10.48
2019-05-09T01:50:19.855Z,9.90
2019-05-09T01:52:50.751Z,10.45
2019-05-09T01:55:23.470Z,9.40
2019-05-09T01:57:54.718Z,9.95
2019-05-09T02:00:25.575Z,11.78
2019-05-09T02:02:56.414Z,10.13
2019-05-09T02:05:28.276Z,10.20
2019-05-09T02:07:59.179Z,10.75
2019-05-09T02:10:29.992Z,10.40
2019-05-09T02:13:03.005Z,10.23
2019-05-09T02:15:34.647Z,11.30
2019-05-09T02:18:07.224Z,11.85
2019-05-09T02:20:38.031Z,12.87
2019-05-09T02:23:08.955Z,12.60
2019-05-09T02:25:39.940Z,12.13
2019-05-09T02:28:10.927Z,10.55
2019-05-09T02:30:44.760Z,12.30
2019-05-09T02:33:14.741Z,12.15
2019-05-09T02:35:55.826Z,11.80
2019-05-09T02:38:20.007Z,12.50
2019-05-09T02:40:50.435Z,12.50
2019-05-09T02:43:21.708Z,11.10
2019-05-09T02:45:54.108Z,11.28
2019-05-09T02:48:25.346Z,9.85
2019-05-09T02:50:59.809Z,10.60
2019-05-09T02:53:29.019Z,10.43
2019-05-09T02:56:00.351Z,11.83
2019-05-09T02:58:32.514Z,11.55
2019-05-09T03:01:04.863Z,12.13
2019-05-09T03:03:39.222Z,11.03
2019-05-09T03:06:09.478Z,10.80
2019-05-09T03:08:40.564Z,11.22
2019-05-09T03:11:11.514Z,12.15
2019-05-09T03:13:42.363Z,11.30
2019-05-09T03:16:15.086Z,10.32
2019-05-09T03:18:49.097Z,11.30
2019-05-09T03:21:19.701Z,11.07
2019-05-09T03:23:50.846Z,11.20
2019-05-09T03:26:23.190Z,10.55
2019-05-09T03:28:58.863Z,11.45
2019-05-09T03:31:29.844Z,10.95
2019-05-09T03:36:32.382Z,12.23
2019-05-09T03:39:04.017Z,10.40
2019-05-09T03:41:35.042Z,11.60
2019-05-09T03:44:07.341Z,11.30
2019-05-09T03:46:40.075Z,11.53
2019-05-09T03:49:12.197Z,11.93
2019-05-09T03:51:42.978Z,12.60
2019-05-09T03:54:14.030Z,11.45
2019-05-09T03:56:47.910Z,11.75
2019-05-09T03:59:19.175Z,12.82
2019-05-09T04:01:50.418Z,11.70
2019-05-09T04:04:21.512Z,12.15
2019-05-09T04:06:53.404Z,12.90
2019-05-09T04:09:24.362Z,15.05
2019-05-09T04:11:55.265Z,11.15
2019-05-09T04:14:28.166Z,10.98
2019-05-09T04:16:59.262Z,11.22
2019-05-09T04:19:30.193Z,11.15
2019-05-09T04:22:02.436Z,11.30
2019-05-09T04:24:33.648Z,11.73
2019-05-09T04:27:07.794Z,10.08
2019-05-09T04:29:39.844Z,11.22
2019-05-09T04:32:11.025Z,11.20
2019-05-09T04:34:41.902Z,11.18
2019-05-09T04:37:12.993Z,13.75
2019-05-09T04:39:44.544Z,11.05
2019-05-09T04:42:15.362Z,10.55
2019-05-09T04:44:49.933Z,12.53
2019-05-09T04:47:19.817Z,13.80
2019-05-09T04:49:50.992Z,12.25
2019-05-09T04:52:22.105Z,11.57
2019-05-09T04:54:52.967Z,12.13
2019-05-09T04:57:23.981Z,11.70
2019-05-09T04:59:54.981Z,12.13
2019-05-09T05:02:27.590Z,12.55
2019-05-09T05:04:59.051Z,11.60
2019-05-09T05:07:29.846Z,11.70
2019-05-09T05:10:00.838Z,11.93
2019-05-09T05:12:32.024Z,10.95
2019-05-09T05:15:02.947Z,12.82
2019-05-09T05:17:33.921Z,10.68
2019-05-09T05:20:08.190Z,12.78
2019-05-09T05:22:40.211Z,12.78
2019-05-09T05:25:11.444Z,12.85
2019-05-09T05:27:42.075Z,11.97
2019-05-09T05:30:13.187Z,12.30
2019-05-09T05:32:45.366Z,13.05
2019-05-09T05:35:17.966Z,13.95
2019-05-09T05:37:48.844Z,12.93
2019-05-09T05:40:20.030Z,12.07
2019-05-09T05:42:51.125Z,12.33
2019-05-09T05:45:22.051Z,12.37
2019-05-09T05:47:54.448Z,12.33
2019-05-09T05:50:25.360Z,13.90
2019-05-09T05:52:57.788Z,13.68
2019-05-09T05:55:28.672Z,11.68
2019-05-09T05:57:59.692Z,13.65
2019-05-09T06:00:30.526Z,12.73
2019-05-09T06:03:01.766Z,14.23
2019-05-09T06:05:32.615Z,14.38
2019-05-09T06:08:03.556Z,14.80
2019-05-09T06:10:34.745Z,14.75
2019-05-09T06:13:07.801Z,15.83
2019-05-09T06:15:38.044Z,16.52
2019-05-09T06:18:09.652Z,15.83
2019-05-09T06:20:40.600Z,16.93
2019-05-09T06:23:11.533Z,15.08
2019-05-09T06:25:42.743Z,14.90
2019-05-09T06:28:13.631Z,16.00
2019-05-09T06:30:44.603Z,14.75
2019-05-09T06:33:18.090Z,15.00
2019-05-09T06:35:48.467Z,16.62
2019-05-09T06:38:19.426Z,15.88
2019-05-09T06:40:50.509Z,14.03
2019-05-09T06:43:22.626Z,14.98
2019-05-09T06:45:54.770Z,15.58
2019-05-09T06:48:25.802Z,17.32
2019-05-09T06:50:57.699Z,16.52
2019-05-09T06:53:29.030Z,14.95
2019-05-09T06:56:00.056Z,15.50
2019-05-09T06:58:32.377Z,15.88
2019-05-09T07:01:07.546Z,14.43
2019-05-09T07:03:38.919Z,16.70
2019-05-09T07:06:12.129Z,15.80
2019-05-09T07:11:13.678Z,15.28
2019-05-09T07:13:47.149Z,17.40
2019-05-09T07:16:18.701Z,15.70
2019-05-09T07:18:49.601Z,14.78
2019-05-09T07:21:21.799Z,14.95
2019-05-09T07:23:52.706Z,15.53
2019-05-09T07:26:25.261Z,14.73
2019-05-09T07:28:56.121Z,15.58
2019-05-09T07:31:28.653Z,14.18
2019-05-09T07:34:00.821Z,15.65
2019-05-09T07:36:31.847Z,15.80
2019-05-09T07:39:02.659Z,15.28
2019-05-09T07:41:33.751Z,15.95
2019-05-09T07:44:04.747Z,16.23
2019-05-09T07:46:35.698Z,16.05
2019-05-09T07:49:08.576Z,17.25
2019-05-09T07:51:39.014Z,15.45
2019-05-09T07:54:21.914Z,18.67
2019-05-09T07:56:43.450Z,16.32
2019-05-09T07:59:14.536Z,17.30
2019-05-09T08:01:45.574Z,17.80
2019-05-09T08:04:18.242Z,16.75
2019-05-09T08:06:48.808Z,17.20
2019-05-09T08:09:19.553Z,16.77
2019-05-09T08:11:50.668Z,17.35
2019-05-09T08:14:21.346Z,16.87
2019-05-09T08:16:52.325Z,17.32
2019-05-09T08:19:23.416Z,15.40
2019-05-09T08:21:54.424Z,14.78
2019-05-09T08:24:27.557Z,15.28
2019-05-09T08:26:58.247Z,15.30
2019-05-09T08:29:29.384Z,16.15
2019-05-09T08:32:00.218Z,16.80
2019-05-09T08:34:31.326Z,15.20
2019-05-09T08:37:02.120Z,16.57
2019-05-09T08:39:32.943Z,15.48
2019-05-09T08:42:04.109Z,15.93
2019-05-09T08:44:35.058Z,15.70
2019-05-09T08:47:07.875Z,16.35
2019-05-09T08:49:39.815Z,16.00
2019-05-09T08:52:16.219Z,18.13
2019-05-09T08:54:45.643Z,16.45
2019-05-09T08:57:18.223Z,15.95
2019-05-09T08:59:50.827Z,16.45
2019-05-09T09:02:22.498Z,16.37
2019-05-09T09:04:53.726Z,16.32
2019-05-09T09:07:24.657Z,15.80
2019-05-09T09:09:57.596Z,17.35
2019-05-09T09:12:34.062Z,21.17
2019-05-09T09:15:00.407Z,23.85
2019-05-09T09:17:31.518Z,13.13
2019-05-09T09:20:02.875Z,10.00
2019-05-09T09:22:33.790Z,11.53
2019-05-09T09:25:04.807Z,9.53
2019-05-09T09:27:37.942Z,9.48
2019-05-09T09:30:20.803Z,12.17
2019-05-09T09:32:41.276Z,7.97
2019-05-09T09:35:12.610Z,12.13
2019-05-09T09:37:48.460Z,12.73
2019-05-09T09:40:17.698Z,16.25
2019-05-09T09:42:49.100Z,9.60
2019-05-09T09:45:20.160Z,10.95
2019-05-09T09:47:51.370Z,10.43
2019-05-09T09:50:22.242Z,11.10
2019-05-09T09:52:53.253Z,13.00
2019-05-09T09:55:24.200Z,16.02
2019-05-09T09:57:57.548Z,16.27
2019-05-09T10:00:31.943Z,11.80
2019-05-09T10:03:02.803Z,12.15
2019-05-09T10:05:33.802Z,12.20
2019-05-09T10:08:04.604Z,8.60
2019-05-09T10:10:38.212Z,5.53
2019-05-09T10:13:10.747Z,3.08
2019-05-09T10:15:42.704Z,4.97
2019-05-09T10:18:13.379Z,5.53
2019-05-09T10:20:45.439Z,7.00
2019-05-09T10:23:20.701Z,6.92
2019-05-09T10:25:48.780Z,6.47
2019-05-09T10:28:21.414Z,6.50
2019-05-09T10:30:52.588Z,7.08
2019-05-09T10:33:23.284Z,4.85
2019-05-09T10:35:54.295Z,4.67
2019-05-09T10:38:27.827Z,3.02
2019-05-09T10:41:00.940Z,2.10
2019-05-09T10:43:37.941Z,1.98
2019-05-09T10:46:05.310Z,4.12
2019-05-09T10:48:38.505Z,4.20
2019-05-09T10:51:10.605Z,4.87
2019-05-09T10:53:41.144Z,5.47
2019-05-09T10:56:12.006Z,3.70
2019-05-09T10:58:42.961Z,5.42
2019-05-09T11:01:14.060Z,3.87
2019-05-09T11:03:44.888Z,3.33
2019-05-09T11:06:18.026Z,19.87
2019-05-09T11:08:48.533Z,2.83
2019-05-09T11:11:19.478Z,2.70
2019-05-09T11:13:50.339Z,2.60
2019-05-09T11:16:21.337Z,4.87
2019-05-09T11:18:52.289Z,5.25
2019-05-09T11:21:23.116Z,6.37
2019-05-09T11:23:54.282Z,7.08
2019-05-09T11:26:25.219Z,7.35
2019-05-09T11:28:58.480Z,5.85
2019-05-09T11:31:29.436Z,5.30
2019-05-09T11:34:00.963Z,4.35
2019-05-09T11:36:31.741Z,4.65
2019-05-09T11:39:02.788Z,3.95
2019-05-09T11:41:33.643Z,4.53
2019-05-09T11:44:04.410Z,10.90
2019-05-09T11:46:37.978Z,3.15
2019-05-09T11:49:08.296Z,2.75
2019-05-09T11:51:39.805Z,3.10
2019-05-09T11:54:10.684Z,3.62
2019-05-09T11:56:41.599Z,2.90
2019-05-09T11:59:12.783Z,2.90
2019-05-09T12:01:43.560Z,3.30
2019-05-09T12:04:14.351Z,3.70
2019-05-09T12:06:45.700Z,3.75
2019-05-09T12:09:16.550Z,3.62
2019-05-09T12:11:48.500Z,3.37
2019-05-09T12:14:19.955Z,4.17
2019-05-09T12:16:50.731Z,4.33
2019-05-09T12:19:21.682Z,3.40
2019-05-09T12:21:52.889Z,4.37
2019-05-09T12:24:23.770Z,3.58
2019-05-09T12:26:54.690Z,4.53
2019-05-09T12:29:25.977Z,4.35
2019-05-09T12:31:57.611Z,3.92
2019-05-09T12:34:28.695Z,4.30
2019-05-09T12:36:59.740Z,3.85
2019-05-09T12:39:30.562Z,4.58
2019-05-09T12:42:01.832Z,4.15
2019-05-09T12:44:32.738Z,4.67
2019-05-09T12:47:03.529Z,5.45
2019-05-09T12:49:34.751Z,4.92
2019-05-09T12:52:08.055Z,5.37
2019-05-09T12:54:38.767Z,4.65
2019-05-09T12:57:10.197Z,4.72
2019-05-09T12:59:48.961Z,5.12
2019-05-09T13:02:13.589Z,4.97
2019-05-09T13:04:44.455Z,4.67
2019-05-09T13:07:15.402Z,4.65
2019-05-09T13:09:52.236Z,5.58
2019-05-09T13:12:18.617Z,4.97
2019-05-09T13:14:49.606Z,5.60
2019-05-09T13:17:22.120Z,6.22
2019-05-09T13:19:52.937Z,5.15
2019-05-09T13:22:23.918Z,4.47
2019-05-09T13:24:55.084Z,4.58
2019-05-09T13:27:28.447Z,4.70
2019-05-09T13:29:58.254Z,4.70
2019-05-09T13:32:29.416Z,4.70
2019-05-09T13:35:00.687Z,4.37
2019-05-09T13:37:31.675Z,4.35
2019-05-09T13:40:02.946Z,4.62
2019-05-09T13:42:34.103Z,3.75
2019-05-09T13:45:05.311Z,4.17
2019-05-09T13:47:38.016Z,4.55
2019-05-09T13:50:10.063Z,4.70
2019-05-09T13:52:41.056Z,4.25
2019-05-09T13:55:12.191Z,4.92
2019-05-09T13:57:43.350Z,4.83
2019-05-09T14:00:14.993Z,5.17
2019-05-09T14:02:48.499Z,4.90
2019-05-09T14:05:19.054Z,4.95
2019-05-09T14:07:54.744Z,5.20
2019-05-09T14:10:22.738Z,5.37
2019-05-09T14:13:05.878Z,4.78
2019-05-09T14:15:27.480Z,4.25
2019-05-09T14:17:58.474Z,4.70
2019-05-09T14:20:29.966Z,4.42
2019-05-09T14:23:00.937Z,4.90
2019-05-09T14:25:32.088Z,4.75
2019-05-09T14:28:03.557Z,5.33
2019-05-09T14:30:34.337Z,4.75
2019-05-09T14:33:08.017Z,6.08
2019-05-09T14:35:38.689Z,5.30
2019-05-09T14:38:10.143Z,5.60
2019-05-09T14:40:41.037Z,5.42
2019-05-09T14:43:12.088Z,5.65
2019-05-09T14:45:43.157Z,4.67
2019-05-09T14:48:14.034Z,5.53
2019-05-09T14:50:44.964Z,5.60
2019-05-09T14:53:18.060Z,5.15
2019-05-09T14:55:48.169Z,5.25
2019-05-09T14:58:19.174Z,6.00
2019-05-09T15:00:50.227Z,5.60
2019-05-09T15:03:21.341Z,4.85
2019-05-09T15:05:52.334Z,5.83
2019-05-09T15:08:23.408Z,6.87
2019-05-09T15:10:54.243Z,5.05
2019-05-09T15:13:25.548Z,5.20
2019-05-09T15:15:57.885Z,6.10
2019-05-09T15:18:28.647Z,5.28
2019-05-09T15:20:59.877Z,5.42
2019-05-09T15:23:30.794Z,5.53
2019-05-09T15:26:01.996Z,5.75
2019-05-09T15:28:32.772Z,5.53
2019-05-09T15:31:03.606Z,5.53
2019-05-09T15:33:34.588Z,5.92
2019-05-09T15:36:06.067Z,5.15
2019-05-09T15:38:37.967Z,5.42
2019-05-09T15:41:12.089Z,5.97
2019-05-09T15:43:41.632Z,5.92
2019-05-09T15:46:13.828Z,6.10
2019-05-09T15:48:44.911Z,5.97
2019-05-09T15:51:17.877Z,6.15
2019-05-09T15:53:48.663Z,5.55
2019-05-09T15:56:20.143Z,6.03
2019-05-09T15:58:51.079Z,6.70
2019-05-09T16:01:22.051Z,6.40
2019-05-09T16:03:53.135Z,6.22
2019-05-09T16:06:24.112Z,6.65
2019-05-09T16:08:55.122Z,6.00
2019-05-09T16:11:27.950Z,6.45
2019-05-09T16:13:58.453Z,6.60
2019-05-09T16:16:29.941Z,6.30
2019-05-09T16:19:00.947Z,6.17
2019-05-09T16:21:31.572Z,6.35
2019-05-09T16:24:02.784Z,6.72
2019-05-09T16:26:34.182Z,7.08
2019-05-09T16:29:05.123Z,7.78
2019-05-09T16:31:38.844Z,7.40
2019-05-09T16:34:09.412Z,6.87
2019-05-09T16:36:40.805Z,6.50
2019-05-09T16:39:11.713Z,6.75
2019-05-09T16:41:42.992Z,6.95
2019-05-09T16:44:14.086Z,6.67
2019-05-09T16:46:45.056Z,7.08
2019-05-09T16:49:17.550Z,7.50
2019-05-09T16:51:48.721Z,7.53
2019-05-09T16:54:19.739Z,7.37
2019-05-09T16:56:50.700Z,7.58
2019-05-09T16:59:21.856Z,7.67
2019-05-09T17:01:52.614Z,7.03
2019-05-09T17:04:23.499Z,7.87
2019-05-09T17:06:54.628Z,8.98
2019-05-09T17:09:25.538Z,8.60
2019-05-09T17:11:57.726Z,10.08
2019-05-09T17:14:28.567Z,10.40
2019-05-09T17:16:59.962Z,11.00
2019-05-09T17:19:30.943Z,10.45
2019-05-09T17:22:03.188Z,10.55
2019-05-09T17:24:34.515Z,10.68
2019-05-09T17:27:05.581Z,10.13
2019-05-09T17:29:38.256Z,9.90
2019-05-09T17:32:08.854Z,10.03
2019-05-09T17:34:42.271Z,10.85
2019-05-09T17:37:12.731Z,8.95
2019-05-09T17:39:43.653Z,10.30
2019-05-09T17:42:14.978Z,9.90
2019-05-09T17:44:48.584Z,9.78
2019-05-09T17:47:18.219Z,10.05
2019-05-09T17:49:49.045Z,9.70
2019-05-09T17:52:20.317Z,10.43
2019-05-09T17:54:51.063Z,9.48
2019-05-09T17:57:21.881Z,9.88
2019-05-09T17:59:52.969Z,10.03
2019-05-09T18:02:23.939Z,8.58
2019-05-09T18:04:55.024Z,10.28
2019-05-09T18:07:27.880Z,10.85
2019-05-09T18:09:58.213Z,10.00
2019-05-09T18:12:29.130Z,10.82
2019-05-09T18:15:00.135Z,10.70
2019-05-09T18:17:30.943Z,11.15
2019-05-09T18:20:02.197Z,11.85
2019-05-09T18:22:33.578Z,10.72
2019-05-09T18:25:04.608Z,11.38
2019-05-09T18:27:37.769Z,11.55
2019-05-09T18:30:09.082Z,10.88
2019-05-09T18:32:41.261Z,12.10
2019-05-09T18:35:15.586Z,11.80
2019-05-09T18:37:48.122Z,12.65
2019-05-09T18:40:21.007Z,11.88
2019-05-09T18:42:52.031Z,13.15
2019-05-09T18:45:24.822Z,13.50
2019-05-09T18:47:57.953Z,12.45
2019-05-09T18:50:28.507Z,13.60
2019-05-09T18:52:59.621Z,13.45
2019-05-09T18:55:30.521Z,14.38
2019-05-09T18:58:01.500Z,15.70
2019-05-09T19:00:32.781Z,14.68
2019-05-09T19:03:03.798Z,14.65
2019-05-09T19:05:34.784Z,16.05
2019-05-09T19:08:05.890Z,15.15
2019-05-09T19:10:36.647Z,15.75
2019-05-09T19:13:07.548Z,15.83
2019-05-09T19:15:40.200Z,16.87
2019-05-09T19:18:12.615Z,16.87
2019-05-09T19:20:44.833Z,17.40
2019-05-09T19:23:15.873Z,16.50
2019-05-09T19:25:46.925Z,17.17
2019-05-09T19:28:18.195Z,17.27
2019-05-09T19:30:49.277Z,17.20
2019-05-09T19:33:20.194Z,18.67
2019-05-09T19:35:51.058Z,17.12
2019-05-09T19:38:21.991Z,18.30
2019-05-09T19:40:52.908Z,19.07
2019-05-09T19:43:23.994Z,19.07
2019-05-09T19:45:54.968Z,18.15
2019-05-09T19:48:25.926Z,17.50
2019-05-09T19:50:56.785Z,18.70
2019-05-09T19:53:27.719Z,18.15
2019-05-09T19:55:58.984Z,17.75
2019-05-09T19:58:30.026Z,18.20
2019-05-09T20:01:01.224Z,18.60
2019-05-09T20:03:31.955Z,18.60
2019-05-09T20:06:02.898Z,19.25
2019-05-09T20:08:34.421Z,19.80
2019-05-09T20:11:06.680Z,20.92
2019-05-09T20:13:38.706Z,20.65
2019-05-09T20:16:10.006Z,19.10
2019-05-09T20:18:40.700Z,18.67
2019-05-09T20:21:11.643Z,18.70
2019-05-09T20:23:42.748Z,19.45
2019-05-09T20:26:13.733Z,18.17
2019-05-09T20:28:44.731Z,19.17
2019-05-09T20:31:15.869Z,19.52
2019-05-09T20:33:46.843Z,19.37
2019-05-09T20:36:17.726Z,18.75
2019-05-09T20:38:49.105Z,17.85
2019-05-09T20:41:20.227Z,18.17
2019-05-09T20:43:51.261Z,18.82
2019-05-09T20:46:22.677Z,19.10
2019-05-09T20:48:53.686Z,18.95
2019-05-09T20:51:24.826Z,19.17
2019-05-09T20:53:56.149Z,18.57
2019-05-09T20:56:27.371Z,19.60
2019-05-09T20:58:58.668Z,19.23
2019-05-09T21:01:29.760Z,19.10
2019-05-09T21:04:00.946Z,20.35
2019-05-09T21:06:32.014Z,20.62
2019-05-09T21:09:03.441Z,18.37
2019-05-09T21:11:34.606Z,17.90
2019-05-09T21:14:05.867Z,18.95
2019-05-09T21:16:37.390Z,20.08
2019-05-09T21:19:08.415Z,19.02
2019-05-09T21:21:39.385Z,20.17
2019-05-09T21:24:10.596Z,19.40
2019-05-09T21:26:41.735Z,20.27
2019-05-09T21:29:12.551Z,19.10
2019-05-09T21:31:43.917Z,18.70
2019-05-09T21:34:14.926Z,20.37
2019-05-09T21:36:45.888Z,17.77
2019-05-09T21:39:17.163Z,18.35
2019-05-09T21:41:48.094Z,18.10
2019-05-09T21:44:18.888Z,18.23
2019-05-09T21:46:49.881Z,18.02
2019-05-09T21:49:20.909Z,18.25
2019-05-09T21:51:51.739Z,17.75
2019-05-09T21:54:22.649Z,16.10
2019-05-09T21:56:53.554Z,17.70
2019-05-09T21:59:24.348Z,18.23
2019-05-09T22:01:55.242Z,17.17
2019-05-09T22:04:26.237Z,18.15
2019-05-09T22:06:57.157Z,17.85
2019-05-09T22:09:28.412Z,16.45
2019-05-09T22:11:59.333Z,17.73
2019-05-09T22:14:30.175Z,16.93
2019-05-09T22:17:02.541Z,16.93
2019-05-09T22:19:33.444Z,16.37
2019-05-09T22:22:04.380Z,16.90
2019-05-09T22:24:35.608Z,18.35
2019-05-09T22:27:06.726Z,17.98
2019-05-09T22:29:37.732Z,17.52
2019-05-09T22:34:56.317Z,18.27
2019-05-09T22:37:27.339Z,18.00
2019-05-09T22:39:58.284Z,18.55
2019-05-09T22:42:28.980Z,18.12
2019-05-09T22:45:00.026Z,17.82
2019-05-09T22:47:30.701Z,17.87
2019-05-09T22:50:03.408Z,18.77
2019-05-09T22:52:33.792Z,18.48
2019-05-09T22:55:04.879Z,17.37
2019-05-09T22:57:35.756Z,18.55
2019-05-09T23:00:08.249Z,17.37
2019-05-09T23:02:39.435Z,18.80
2019-05-09T23:05:10.402Z,20.85
2019-05-09T23:07:41.236Z,17.75
2019-05-09T23:12:53.599Z,18.50
2019-05-09T23:15:24.494Z,18.50
2019-05-09T23:17:55.402Z,17.98
2019-05-09T23:20:27.528Z,17.60
2019-05-09T23:22:58.527Z,17.32
2019-05-09T23:25:29.395Z,17.85
2019-05-09T23:28:00.743Z,17.42
2019-05-09T23:30:31.626Z,17.48
2019-05-09T23:33:03.096Z,17.40
2019-05-09T23:35:34.148Z,17.92
2019-05-09T23:38:05.040Z,16.75
2019-05-09T23:40:35.998Z,16.48
2019-05-09T23:43:06.934Z,15.70
2019-05-09T23:45:37.698Z,17.25
2019-05-09T23:48:08.741Z,15.13
2019-05-09T23:50:39.650Z,15.68
2019-05-09T23:53:10.468Z,16.77
2019-05-09T23:55:42.784Z,16.48
2019-05-09T23:58:14.993Z,15.90
